createdAt,value
2016-11-05T00:01:29.116Z,0
2016-11-05T00:06:29.379Z,0
2016-11-05T00:11:29.006Z,0
2016-11-05T00:16:29.257Z,0
2016-11-05T00:21:29.217Z,0
2016-11-05T00:26:28.851Z,0
2016-11-05T00:31:29.106Z,0
2016-11-05T00:36:29.039Z,0
2016-11-05T00:41:28.381Z,0
2016-11-05T00:46:28.933Z,0
2016-11-05T00:51:28.603Z,0
2016-11-05T00:56:28.811Z,0
2016-11-05T01:01:28.145Z,0
2016-11-05T01:06:28.399Z,0
2016-11-05T01:11:28.337Z,0
2016-11-05T01:16:28.281Z,0
2016-11-05T01:21:28.531Z,0
2016-11-05T01:26:28.475Z,0
2016-11-05T01:31:28.409Z,0
2016-11-05T01:36:28.053Z,0
2016-11-05T01:41:28.003Z,0
2016-11-05T01:46:28.247Z,0
2016-11-05T01:51:27.876Z,0
2016-11-05T01:56:27.527Z,0
2016-11-05T02:01:27.771Z,0
2016-11-05T02:06:28.018Z,0
2016-11-05T02:11:27.654Z,0
2016-11-05T02:16:27.900Z,0
2016-11-05T02:21:27.838Z,0
2016-11-05T02:26:27.775Z,0
2016-11-05T02:31:27.721Z,0
2016-11-05T02:36:27.659Z,0
2016-11-05T02:41:27.298Z,0
2016-11-05T02:46:27.542Z,0
2016-11-05T02:51:27.185Z,0
2016-11-05T02:56:27.425Z,0
2016-11-05T03:01:27.069Z,0
2016-11-05T03:06:27.305Z,0
2016-11-05T03:11:27.245Z,0
2016-11-05T03:16:27.197Z,0
2016-11-05T03:21:27.127Z,0
2016-11-05T03:26:27.065Z,0
2016-11-05T03:31:26.739Z,0
2016-11-05T03:36:26.957Z,0
2016-11-05T03:41:26.889Z,0
2016-11-05T03:46:26.531Z,0
2016-11-05T03:51:26.804Z,0
2016-11-05T03:56:26.709Z,0
2016-11-05T04:01:26.653Z,0
2016-11-05T04:06:26.593Z,0
2016-11-05T04:11:26.531Z,0
2016-11-05T04:16:26.175Z,0
2016-11-05T04:21:25.841Z,0
2016-11-05T04:26:26.404Z,0
2016-11-05T04:31:25.999Z,0
2016-11-05T04:36:26.244Z,0
2016-11-05T04:41:26.184Z,0
2016-11-05T04:46:25.822Z,0
2016-11-05T04:51:25.757Z,0
2016-11-05T04:56:25.696Z,0
2016-11-05T05:01:25.636Z,0
2016-11-05T05:06:25.886Z,0
2016-11-05T05:11:25.822Z,0
2016-11-05T05:16:25.461Z,0
2016-11-05T05:21:25.398Z,0
2016-11-05T05:26:25.336Z,0
2016-11-05T05:31:25.276Z,0
2016-11-05T05:36:25.530Z,0
2016-11-05T05:41:25.457Z,0
2016-11-05T05:46:25.093Z,0
2016-11-05T05:51:25.032Z,0
2016-11-05T05:56:25.017Z,0
2016-11-05T06:01:25.223Z,0
2016-11-05T06:06:25.157Z,0
2016-11-05T06:11:24.803Z,0
2016-11-05T06:16:24.737Z,0
2016-11-05T06:21:24.679Z,0
2016-11-05T06:26:24.317Z,0
2016-11-05T06:31:24.857Z,0
2016-11-05T06:36:24.806Z,0
2016-11-05T06:41:24.747Z,0
2016-11-05T06:46:24.378Z,0
2016-11-05T06:51:24.313Z,0
2016-11-05T06:56:23.953Z,0
2016-11-05T07:01:23.882Z,0
2016-11-05T07:06:24.130Z,0
2016-11-05T07:11:24.400Z,0
2016-11-05T07:16:24.003Z,0
2016-11-05T07:21:23.953Z,0
2016-11-05T07:26:24.187Z,0
2016-11-05T07:31:24.127Z,0
2016-11-05T07:36:24.073Z,0
2016-11-05T07:41:23.929Z,0
2016-11-05T07:46:23.958Z,0
2016-11-05T07:51:23.897Z,0
2016-11-05T07:56:23.541Z,0
2016-11-05T08:01:23.789Z,0
2016-11-05T08:06:23.436Z,0
2016-11-05T08:11:23.675Z,0
2016-11-05T08:16:23.611Z,0
2016-11-05T08:21:23.565Z,0
2016-11-05T08:26:23.204Z,0
2016-11-05T08:31:23.157Z,0
2016-11-05T08:36:23.120Z,0
2016-11-05T08:41:23.041Z,0
2016-11-05T08:46:22.683Z,0
2016-11-05T08:51:22.628Z,0
2016-11-05T08:56:23.186Z,0
2016-11-05T09:01:23.137Z,0
2016-11-05T09:06:22.780Z,4
2016-11-05T09:11:23.034Z,0
2016-11-05T09:16:22.966Z,28
2016-11-05T09:21:22.604Z,32
2016-11-05T09:26:22.859Z,60
2016-11-05T09:31:22.797Z,24
2016-11-05T09:36:22.148Z,16
2016-11-05T09:41:22.442Z,36
2016-11-05T09:46:22.333Z,44
2016-11-05T09:51:22.581Z,56
2016-11-05T09:56:22.529Z,132
2016-11-05T10:01:22.466Z,48
2016-11-05T10:06:22.417Z,32
2016-11-05T10:11:22.360Z,44
2016-11-05T10:16:21.993Z,60
2016-11-05T10:21:21.953Z,80
2016-11-05T10:26:21.880Z,68
2016-11-05T10:31:21.834Z,64
2016-11-05T10:36:21.780Z,40
2016-11-05T10:41:21.710Z,64
2016-11-05T10:46:21.968Z,64
2016-11-05T10:51:21.924Z,44
2016-11-05T10:56:21.549Z,84
2016-11-05T11:01:21.524Z,116
2016-11-05T11:06:21.135Z,48
2016-11-05T11:11:21.390Z,92
2016-11-05T11:16:21.662Z,124
2016-11-05T11:21:21.589Z,64
2016-11-05T11:26:21.236Z,68
2016-11-05T11:31:21.484Z,52
2016-11-05T11:36:21.124Z,64
2016-11-05T11:41:21.091Z,52
2016-11-05T11:46:21.323Z,32
2016-11-05T11:51:21.277Z,24
2016-11-05T11:56:20.624Z,36
2016-11-05T12:01:21.171Z,56
2016-11-05T12:06:21.107Z,52
2016-11-05T12:11:21.055Z,64
2016-11-05T12:16:20.695Z,44
2016-11-05T12:21:20.335Z,72
2016-11-05T12:26:20.577Z,96
2016-11-05T12:31:20.829Z,64
2016-11-05T12:36:20.787Z,80
2016-11-05T12:41:20.710Z,96
2016-11-05T12:46:20.663Z,128
2016-11-05T12:51:20.295Z,128
2016-11-05T12:56:19.629Z,96
2016-11-05T13:01:19.583Z,24
2016-11-05T13:06:19.863Z,16
2016-11-05T13:11:20.065Z,12
2016-11-05T13:16:20.327Z,12
2016-11-05T13:21:19.969Z,12
2016-11-05T13:26:19.905Z,12
2016-11-05T13:31:19.538Z,8
2016-11-05T13:36:20.098Z,12
2016-11-05T13:41:19.424Z,12
2016-11-05T13:46:19.377Z,8
2016-11-05T13:51:19.620Z,8
2016-11-05T13:56:19.570Z,8
2016-11-05T14:01:19.806Z,12
2016-11-05T14:06:19.146Z,8
2016-11-05T14:11:19.708Z,12
2016-11-05T14:16:19.334Z,16
2016-11-05T14:21:19.580Z,20
2016-11-05T14:26:19.538Z,16
2016-11-05T14:31:19.475Z,24
2016-11-05T14:36:19.417Z,28
2016-11-05T14:41:19.356Z,20
2016-11-05T14:46:19.305Z,12
2016-11-05T14:51:19.257Z,8
2016-11-05T14:56:18.877Z,24
2016-11-05T15:01:18.814Z,48
2016-11-05T15:06:19.065Z,36
2016-11-05T15:11:19.015Z,20
2016-11-05T15:16:18.659Z,12
2016-11-05T15:21:18.283Z,8
2016-11-05T15:26:18.231Z,8
2016-11-05T15:31:18.496Z,4
2016-11-05T15:36:18.448Z,4
2016-11-05T15:41:18.387Z,4
2016-11-05T15:46:18.320Z,4
2016-11-05T15:51:18.253Z,4
2016-11-05T15:56:18.199Z,4
2016-11-05T16:01:17.842Z,4
2016-11-05T16:06:18.088Z,4
2016-11-05T16:11:17.729Z,4
2016-11-05T16:16:18.277Z,4
2016-11-05T16:21:18.236Z,4
2016-11-05T16:26:18.175Z,4
2016-11-05T16:31:18.127Z,4
2016-11-05T16:36:17.773Z,4
2016-11-05T16:41:17.441Z,4
2016-11-05T16:46:17.356Z,4
2016-11-05T16:51:17.647Z,4
2016-11-05T16:56:17.884Z,4
2016-11-05T17:01:17.803Z,4
2016-11-05T17:06:17.767Z,4
2016-11-05T17:11:17.387Z,4
2016-11-05T17:16:17.644Z,4
2016-11-05T17:21:17.287Z,4
2016-11-05T17:26:17.240Z,4
2016-11-05T17:31:17.476Z,4
2016-11-05T17:36:17.132Z,4
2016-11-05T17:41:17.382Z,4
2016-11-05T17:46:16.717Z,4
2016-11-05T17:51:17.277Z,4
2016-11-05T17:56:17.253Z,4
2016-11-05T18:01:17.183Z,4
2016-11-05T18:06:17.132Z,4
2016-11-05T18:11:16.771Z,4
2016-11-05T18:16:16.721Z,4
2016-11-05T18:21:16.682Z,4
2016-11-05T18:26:16.633Z,4
2016-11-05T18:31:16.886Z,4
2016-11-05T18:36:16.545Z,4
2016-11-05T18:41:16.840Z,4
2016-11-05T18:46:16.480Z,4
2016-11-05T18:51:16.389Z,4
2016-11-05T18:56:16.347Z,4
2016-11-05T19:01:16.295Z,4
2016-11-05T19:06:16.546Z,4
2016-11-05T19:11:16.197Z,4
2016-11-05T19:16:16.447Z,4
2016-11-05T19:21:16.409Z,4
2016-11-05T19:26:16.467Z,4
2016-11-05T19:31:15.702Z,4
2016-11-05T19:36:15.955Z,4
2016-11-05T19:41:15.603Z,4
2016-11-05T19:46:16.177Z,4
2016-11-05T19:51:15.207Z,4
2016-11-05T19:56:15.781Z,4
2016-11-05T20:01:15.719Z,0
2016-11-05T20:06:15.653Z,4
2016-11-05T20:11:15.613Z,0
2016-11-05T20:16:15.877Z,0
2016-11-05T20:21:14.904Z,0
2016-11-05T20:26:15.761Z,0
2016-11-05T20:31:15.407Z,0
2016-11-05T20:36:15.358Z,0
2016-11-05T20:41:15.001Z,0
2016-11-05T20:46:15.259Z,0
2016-11-05T20:51:15.510Z,0
2016-11-05T20:56:15.145Z,0
2016-11-05T21:01:15.106Z,0
2016-11-05T21:06:15.049Z,0
2016-11-05T21:11:15.323Z,0
2016-11-05T21:16:14.638Z,0
2016-11-05T21:21:15.195Z,0
2016-11-05T21:26:14.836Z,0
2016-11-05T21:31:15.082Z,0
2016-11-05T21:36:14.726Z,0
2016-11-05T21:41:14.673Z,0
2016-11-05T21:46:14.627Z,0
2016-11-05T21:51:14.886Z,0
2016-11-05T21:56:14.210Z,0
2016-11-05T22:01:14.467Z,0
2016-11-05T22:06:14.722Z,0
2016-11-05T22:11:14.371Z,0
2016-11-05T22:16:14.316Z,0
2016-11-05T22:21:14.560Z,0
2016-11-05T22:26:14.208Z,0
2016-11-05T22:31:14.476Z,0
2016-11-05T22:36:14.097Z,0
2016-11-05T22:41:14.359Z,0
2016-11-05T22:46:14.310Z,0
2016-11-05T22:51:13.939Z,0
2016-11-05T22:56:14.193Z,4
2016-11-05T23:01:13.533Z,4
2016-11-05T23:06:13.487Z,4
2016-11-05T23:11:13.130Z,4
2016-11-05T23:16:13.396Z,0
2016-11-05T23:21:13.326Z,0
2016-11-05T23:26:13.890Z,0
2016-11-05T23:31:13.528Z,0
2016-11-05T23:36:13.471Z,0
2016-11-05T23:41:13.732Z,0
2016-11-05T23:46:13.359Z,0
2016-11-05T23:51:13.309Z,0
2016-11-05T23:56:12.949Z,0
